createdAt,value
2022-08-26T00:01:57.861Z,2.58
2022-08-26T00:04:26.593Z,2.30
2022-08-26T00:06:56.346Z,2.28
2022-08-26T00:09:25.350Z,2.42
2022-08-26T00:11:54.580Z,2.47
2022-08-26T00:14:28.274Z,2.28
2022-08-26T00:16:59.563Z,2.53
2022-08-26T00:19:27.710Z,2.50
2022-08-26T00:21:55.807Z,2.40
2022-08-26T00:24:23.845Z,2.42
2022-08-26T00:26:55.205Z,2.15
2022-08-26T00:29:23.212Z,2.53
2022-08-26T00:31:51.392Z,2.40
2022-08-26T00:34:20.824Z,2.42
2022-08-26T00:36:51.988Z,2.20
2022-08-26T00:39:21.150Z,2.50
2022-08-26T00:41:49.136Z,2.70
2022-08-26T00:44:18.484Z,2.30
2022-08-26T00:46:50.181Z,2.25
2022-08-26T00:49:22.848Z,2.58
2022-08-26T00:51:53.777Z,2.40
2022-08-26T00:54:26.750Z,2.15
2022-08-26T00:56:59.938Z,2.40
2022-08-26T00:59:32.654Z,2.30
2022-08-26T01:02:02.890Z,2.30
2022-08-26T01:04:36.285Z,2.08
2022-08-26T01:07:05.456Z,2.35
2022-08-26T01:09:33.851Z,2.60
2022-08-26T01:12:03.536Z,2.30
2022-08-26T01:14:36.709Z,2.33
2022-08-26T01:17:07.241Z,2.13
2022-08-26T01:19:42.488Z,2.00
2022-08-26T01:22:16.845Z,2.38
2022-08-26T01:24:47.258Z,2.17
2022-08-26T01:27:20.660Z,2.38
2022-08-26T01:29:50.439Z,2.20
2022-08-26T01:32:23.455Z,2.58
2022-08-26T01:34:51.891Z,1.92
2022-08-26T01:37:21.707Z,2.67
2022-08-26T01:39:56.409Z,2.60
2022-08-26T01:42:27.373Z,2.67
2022-08-26T01:45:01.120Z,2.20
2022-08-26T01:47:32.333Z,3.00
2022-08-26T01:50:03.361Z,2.40
2022-08-26T01:52:35.524Z,2.35
2022-08-26T01:55:06.761Z,2.30
2022-08-26T01:57:37.243Z,2.70
2022-08-26T02:00:08.844Z,2.53
2022-08-26T02:02:36.909Z,2.33
2022-08-26T02:05:07.831Z,2.53
2022-08-26T02:07:35.772Z,2.20
2022-08-26T02:10:07.089Z,2.67
2022-08-26T02:12:35.352Z,2.30
2022-08-26T02:15:08.526Z,2.30
2022-08-26T02:17:42.550Z,2.70
2022-08-26T02:20:15.006Z,2.67
2022-08-26T02:22:45.870Z,2.35
2022-08-26T02:25:23.068Z,2.28
2022-08-26T02:27:51.491Z,2.70
2022-08-26T02:30:23.506Z,2.78
2022-08-26T02:32:51.892Z,2.55
2022-08-26T02:35:22.221Z,2.30
2022-08-26T02:37:52.151Z,2.70
2022-08-26T02:40:25.344Z,2.88
2022-08-26T02:42:56.001Z,2.83
2022-08-26T02:45:26.332Z,2.53
2022-08-26T02:47:55.827Z,2.85
2022-08-26T02:50:25.705Z,2.60
2022-08-26T02:52:54.242Z,2.72
2022-08-26T02:55:24.787Z,2.67
2022-08-26T02:57:53.208Z,2.38
2022-08-26T03:00:21.573Z,2.92
2022-08-26T03:02:51.851Z,2.33
2022-08-26T03:05:22.169Z,2.50
2022-08-26T03:07:52.680Z,2.97
2022-08-26T03:10:23.727Z,3.03
2022-08-26T03:12:54.086Z,2.80
2022-08-26T03:15:22.380Z,2.85
2022-08-26T03:17:50.791Z,2.90
2022-08-26T03:20:19.277Z,2.65
2022-08-26T03:22:47.444Z,2.47
2022-08-26T03:25:18.611Z,2.97
2022-08-26T03:27:47.996Z,2.65
2022-08-26T03:30:34.804Z,2.95
2022-08-26T03:33:03.421Z,2.92
2022-08-26T03:35:32.804Z,2.45
2022-08-26T03:38:01.206Z,2.80
2022-08-26T03:40:30.248Z,3.17
2022-08-26T03:42:59.692Z,3.60
2022-08-26T03:45:28.069Z,3.28
2022-08-26T03:47:56.076Z,2.70
2022-08-26T03:50:27.250Z,2.83
2022-08-26T03:52:56.421Z,3.35
2022-08-26T03:55:26.933Z,3.80
2022-08-26T03:57:55.897Z,3.38
2022-08-26T04:00:25.529Z,3.00
2022-08-26T04:02:53.893Z,3.80
2022-08-26T04:05:23.599Z,2.70
2022-08-26T04:07:52.338Z,2.13
2022-08-26T04:10:28.537Z,2.90
2022-08-26T04:12:58.792Z,3.28
2022-08-26T04:15:28.804Z,2.95
2022-08-26T04:17:57.382Z,3.25
2022-08-26T04:20:25.860Z,2.70
2022-08-26T04:22:53.891Z,3.42
2022-08-26T04:25:22.603Z,2.85
2022-08-26T04:27:52.376Z,2.63
2022-08-26T04:30:21.292Z,3.08
2022-08-26T04:32:51.080Z,2.85
2022-08-26T04:35:22.804Z,2.95
2022-08-26T04:37:53.954Z,3.15
2022-08-26T04:40:22.032Z,3.00
2022-08-26T04:42:50.351Z,3.20
2022-08-26T04:45:22.571Z,2.85
2022-08-26T04:47:56.443Z,3.40
2022-08-26T04:50:26.593Z,3.83
2022-08-26T04:52:55.442Z,3.00
2022-08-26T04:55:38.537Z,3.00
2022-08-26T04:58:10.742Z,3.35
2022-08-26T05:00:39.532Z,3.78
2022-08-26T05:03:10.218Z,3.75
2022-08-26T05:05:40.115Z,3.47
2022-08-26T05:08:08.482Z,3.75
2022-08-26T05:10:41.291Z,3.47
2022-08-26T05:13:10.952Z,4.10
2022-08-26T05:15:39.834Z,3.28
2022-08-26T05:18:11.585Z,3.17
2022-08-26T05:20:41.070Z,3.72
2022-08-26T05:23:09.406Z,3.38
2022-08-26T05:25:39.013Z,3.50
2022-08-26T05:28:07.827Z,3.10
2022-08-26T05:30:36.041Z,3.88
2022-08-26T05:33:04.734Z,3.58
2022-08-26T05:35:35.034Z,3.70
2022-08-26T05:38:03.997Z,3.50
2022-08-26T05:40:36.789Z,3.65
2022-08-26T05:43:10.482Z,4.65
2022-08-26T05:48:14.601Z,3.78
2022-08-26T05:50:46.734Z,3.53
2022-08-26T05:53:17.503Z,3.55
2022-08-26T05:55:49.732Z,3.70
2022-08-26T05:58:20.302Z,2.60
2022-08-26T06:00:57.181Z,3.10
2022-08-26T06:03:27.571Z,3.50
2022-08-26T06:05:57.049Z,3.58
2022-08-26T06:08:25.749Z,3.20
2022-08-26T06:10:56.687Z,2.97
2022-08-26T06:13:27.175Z,3.17
2022-08-26T06:18:32.640Z,1.80
2022-08-26T06:21:03.457Z,2.15
2022-08-26T06:23:48.795Z,2.97
2022-08-26T06:26:18.608Z,3.35
2022-08-26T06:28:47.156Z,2.83
2022-08-26T06:31:15.955Z,2.25
2022-08-26T06:33:44.471Z,3.15
2022-08-26T06:36:19.494Z,2.97
2022-08-26T06:38:48.579Z,3.13
2022-08-26T06:41:17.093Z,2.60
2022-08-26T06:43:45.903Z,2.75
2022-08-26T06:46:16.645Z,2.40
2022-08-26T06:48:45.256Z,2.60
2022-08-26T06:51:14.971Z,2.58
2022-08-26T06:53:47.020Z,3.22
2022-08-26T06:56:18.997Z,2.65
2022-08-26T06:58:47.112Z,3.38
2022-08-26T07:01:20.001Z,2.95
2022-08-26T07:06:19.793Z,3.75
2022-08-26T07:08:50.418Z,4.22
2022-08-26T07:11:20.161Z,3.70
2022-08-26T07:13:48.932Z,2.80
2022-08-26T07:16:18.706Z,3.08
2022-08-26T07:18:48.622Z,2.67
2022-08-26T07:21:18.421Z,2.72
2022-08-26T07:23:48.988Z,2.78
2022-08-26T07:26:19.056Z,3.05
2022-08-26T07:28:48.811Z,2.72
2022-08-26T07:31:17.897Z,3.00
2022-08-26T07:33:46.900Z,2.80
2022-08-26T07:36:16.094Z,2.72
2022-08-26T07:38:45.565Z,2.65
2022-08-26T07:41:16.998Z,2.60
2022-08-26T07:43:46.211Z,2.67
2022-08-26T07:46:20.845Z,2.38
2022-08-26T07:48:56.503Z,2.67
2022-08-26T07:51:25.094Z,2.78
2022-08-26T07:53:56.992Z,2.47
2022-08-26T07:56:54.412Z,3.15
2022-08-26T07:59:27.288Z,2.50
2022-08-26T08:02:02.166Z,3.17
2022-08-26T08:04:31.471Z,2.65
2022-08-26T08:06:59.686Z,3.65
2022-08-26T08:09:31.282Z,3.25
2022-08-26T08:12:00.901Z,2.63
2022-08-26T08:14:33.502Z,2.50
2022-08-26T08:17:07.796Z,2.40
2022-08-26T08:22:58.092Z,2.83
2022-08-26T08:25:58.927Z,3.42
2022-08-26T08:29:00.886Z,2.97
2022-08-26T08:31:58.511Z,2.90
2022-08-26T08:34:32.941Z,3.40
2022-08-26T08:46:01.816Z,3.13
2022-08-26T08:48:37.015Z,3.05
2022-08-26T09:02:37.687Z,3.33
2022-08-26T09:52:40.514Z,2.70
2022-08-26T10:04:15.900Z,3.20
2022-08-26T10:06:56.961Z,3.53
2022-08-26T10:09:29.881Z,3.40
2022-08-26T10:12:04.613Z,3.28
2022-08-26T10:14:40.088Z,3.00
2022-08-26T10:17:30.805Z,3.42
2022-08-26T10:22:54.292Z,3.55
2022-08-26T10:25:29.234Z,2.72
2022-08-26T10:28:05.821Z,3.17
2022-08-26T10:30:39.382Z,3.40
2022-08-26T10:37:33.444Z,3.42
2022-08-26T10:43:40.827Z,3.95
2022-08-26T10:49:07.822Z,4.78
2022-08-26T10:59:10.341Z,3.55
2022-08-26T11:02:03.947Z,3.20
2022-08-26T11:05:56.252Z,3.60
2022-08-26T11:08:34.708Z,3.35
2022-08-26T11:14:58.787Z,4.05
2022-08-26T11:18:23.096Z,3.17
2022-08-26T11:21:05.065Z,3.53
2022-08-26T11:24:08.969Z,3.22
2022-08-26T11:26:55.564Z,3.63
2022-08-26T11:29:59.385Z,3.25
2022-08-26T11:32:46.175Z,3.40
2022-08-26T11:35:52.269Z,3.60
2022-08-26T11:38:26.734Z,2.95
2022-08-26T11:41:18.613Z,3.25
2022-08-26T11:43:49.480Z,3.85
2022-08-26T11:46:25.653Z,3.72
2022-08-26T11:49:02.197Z,3.83
2022-08-26T11:51:32.900Z,3.20
2022-08-26T11:54:12.182Z,3.55
2022-08-26T11:56:42.166Z,3.97
2022-08-26T11:59:12.636Z,3.80
2022-08-26T12:01:44.374Z,3.30
2022-08-26T12:04:18.831Z,3.72
2022-08-26T12:06:52.134Z,4.22
2022-08-26T12:09:23.598Z,3.58
2022-08-26T12:11:52.840Z,3.97
2022-08-26T12:14:27.779Z,3.22
2022-08-26T12:17:10.300Z,3.40
2022-08-26T12:19:38.594Z,3.35
2022-08-26T12:22:16.224Z,3.45
2022-08-26T12:24:48.837Z,4.20
2022-08-26T12:27:22.167Z,4.28
2022-08-26T12:30:03.325Z,3.05
2022-08-26T12:32:35.515Z,3.53
2022-08-26T12:37:39.922Z,4.38
2022-08-26T12:40:32.746Z,4.28
2022-08-26T12:43:02.167Z,3.58
2022-08-26T12:45:32.949Z,3.38
2022-08-26T12:48:03.758Z,3.85
2022-08-26T12:50:34.138Z,4.03
2022-08-26T12:53:07.120Z,4.05
2022-08-26T12:55:39.424Z,3.97
2022-08-26T12:58:22.158Z,5.10
2022-08-26T13:00:50.887Z,4.38
2022-08-26T13:03:46.644Z,4.20
2022-08-26T13:06:27.972Z,4.85
2022-08-26T13:08:59.782Z,4.18
2022-08-26T13:11:30.037Z,3.92
2022-08-26T13:14:00.406Z,3.70
2022-08-26T13:16:30.543Z,4.13
2022-08-26T13:19:01.915Z,3.92
2022-08-26T13:21:37.425Z,3.45
2022-08-26T13:24:11.779Z,4.07
2022-08-26T13:26:39.914Z,4.07
2022-08-26T13:29:10.388Z,3.67
2022-08-26T13:31:41.265Z,4.03
2022-08-26T13:34:10.718Z,4.03
2022-08-26T13:36:39.435Z,3.60
2022-08-26T13:39:09.336Z,3.63
2022-08-26T13:41:37.625Z,3.95
2022-08-26T13:44:07.588Z,3.55
2022-08-26T13:46:35.888Z,3.58
2022-08-26T13:49:04.372Z,3.40
2022-08-26T13:51:41.938Z,4.15
2022-08-26T14:30:57.139Z,4.28
2022-08-26T14:33:31.889Z,3.47
2022-08-26T14:36:20.525Z,3.47
2022-08-26T14:38:48.694Z,3.63
2022-08-26T14:41:24.782Z,3.83
2022-08-26T14:43:58.053Z,5.18
2022-08-26T14:46:30.289Z,5.45
2022-08-26T14:49:02.001Z,5.23
2022-08-26T14:51:30.687Z,5.43
2022-08-26T14:54:14.012Z,5.22
2022-08-26T14:56:46.348Z,5.38
2022-08-26T14:59:16.158Z,6.23
2022-08-26T15:01:52.108Z,5.95
2022-08-26T15:04:23.880Z,5.18
2022-08-26T15:06:53.596Z,4.65
2022-08-26T15:09:22.442Z,5.50
2022-08-26T15:11:51.659Z,5.45
2022-08-26T15:14:20.131Z,5.80
2022-08-26T15:16:51.581Z,5.82
2022-08-26T15:19:19.734Z,5.70
2022-08-26T15:21:48.650Z,4.88
2022-08-26T15:24:20.865Z,5.97
2022-08-26T15:26:50.295Z,5.32
2022-08-26T15:29:18.815Z,4.80
2022-08-26T15:31:57.171Z,5.32
2022-08-26T15:34:36.253Z,4.95
2022-08-26T15:39:47.668Z,4.97
2022-08-26T15:45:49.016Z,5.32
2022-08-26T15:48:17.237Z,5.13
2022-08-26T15:50:52.723Z,4.97
2022-08-26T15:53:23.905Z,4.97
2022-08-26T15:55:57.593Z,5.28
2022-08-26T15:58:27.018Z,5.05
2022-08-26T16:01:00.072Z,5.28
2022-08-26T16:03:49.755Z,5.63
2022-08-26T16:08:19.696Z,4.85
2022-08-26T16:09:34.418Z,5.63
2022-08-26T16:12:02.796Z,4.55
2022-08-26T16:14:31.401Z,4.82
2022-08-26T16:17:05.615Z,5.22
2022-08-26T16:20:55.321Z,5.90
2022-08-26T16:27:00.460Z,5.18
2022-08-26T16:29:43.334Z,5.22
2022-08-26T16:35:46.321Z,5.35
2022-08-26T16:38:58.518Z,5.53
2022-08-26T16:41:31.779Z,5.57
2022-08-26T16:44:55.841Z,5.10
2022-08-26T16:50:06.720Z,5.00
2022-08-26T16:52:35.066Z,5.65
2022-08-26T16:55:28.562Z,5.90
2022-08-26T16:57:58.279Z,4.97
2022-08-26T17:04:47.295Z,5.43
2022-08-26T17:07:34.973Z,6.28
2022-08-26T17:10:03.951Z,6.72
2022-08-26T17:12:35.462Z,6.88
2022-08-26T17:15:06.696Z,6.90
2022-08-26T17:17:36.216Z,7.75
2022-08-26T17:28:17.883Z,7.63
2022-08-26T17:30:47.404Z,7.90
2022-08-26T17:39:15.783Z,8.05
2022-08-26T17:42:00.678Z,8.85
2022-08-26T17:45:25.772Z,9.27
2022-08-26T17:52:33.219Z,9.10
2022-08-26T17:55:01.501Z,8.50
2022-08-26T17:57:30.679Z,8.48
2022-08-26T18:00:00.550Z,8.50
2022-08-26T18:08:03.380Z,8.57
2022-08-26T18:10:31.508Z,9.70
2022-08-26T18:12:59.640Z,9.85
2022-08-26T18:15:27.641Z,10.18
2022-08-26T18:17:55.662Z,11.10
2022-08-26T18:20:23.874Z,12.30
2022-08-26T18:22:54.221Z,11.93
2022-08-26T18:25:23.767Z,10.80
2022-08-26T18:27:51.784Z,9.45
2022-08-26T18:30:23.081Z,9.60
2022-08-26T18:32:52.299Z,10.00
2022-08-26T18:35:21.392Z,10.68
2022-08-26T18:37:49.489Z,9.38
2022-08-26T18:40:17.736Z,9.27
2022-08-26T18:42:47.200Z,10.75
2022-08-26T18:45:23.427Z,9.57
2022-08-26T18:47:51.667Z,8.82
2022-08-26T18:50:19.975Z,9.35
2022-08-26T18:52:48.249Z,8.95
2022-08-26T18:55:16.630Z,8.35
2022-08-26T18:57:46.470Z,9.02
2022-08-26T19:00:15.433Z,9.02
2022-08-26T19:06:02.899Z,9.02
2022-08-26T19:16:49.118Z,8.70
2022-08-26T19:45:37.185Z,6.57
2022-08-26T19:48:30.930Z,5.70
2022-08-26T19:50:59.396Z,5.32
2022-08-26T19:53:27.605Z,5.68
2022-08-26T19:55:55.966Z,5.18
2022-08-26T19:58:24.318Z,5.38
2022-08-26T20:00:54.014Z,4.78
2022-08-26T20:03:23.419Z,4.53
2022-08-26T20:05:52.044Z,4.80
2022-08-26T20:08:22.467Z,4.63
2022-08-26T20:10:51.077Z,4.30
2022-08-26T20:13:19.817Z,3.40
2022-08-26T20:15:47.961Z,4.15
2022-08-26T20:18:35.002Z,3.65
2022-08-26T20:21:20.170Z,3.95
2022-08-26T20:23:48.688Z,4.47
2022-08-26T20:26:16.738Z,3.40
2022-08-26T20:28:44.800Z,3.90
2022-08-26T20:31:13.105Z,4.22
2022-08-26T20:33:46.325Z,4.40
2022-08-26T20:36:15.625Z,4.40
2022-08-26T20:38:45.307Z,3.65
2022-08-26T20:41:13.550Z,3.97
2022-08-26T20:43:42.880Z,4.32
2022-08-26T20:46:18.819Z,4.53
2022-08-26T20:48:50.066Z,4.78
2022-08-26T20:51:19.813Z,4.75
2022-08-26T20:53:48.140Z,5.45
2022-08-26T20:56:21.846Z,4.65
2022-08-26T20:58:50.616Z,4.50
2022-08-26T21:01:20.921Z,4.68
2022-08-26T21:03:51.907Z,4.15
2022-08-26T21:06:20.307Z,4.35
2022-08-26T21:08:48.565Z,4.68
2022-08-26T21:11:17.363Z,5.97
2022-08-26T21:14:03.793Z,5.05
2022-08-26T21:16:33.318Z,4.82
2022-08-26T21:19:03.032Z,5.07
2022-08-26T21:21:31.041Z,5.18
2022-08-26T21:23:59.061Z,4.50
2022-08-26T21:26:27.802Z,4.53
2022-08-26T21:28:55.822Z,5.03
2022-08-26T21:31:26.472Z,4.68
2022-08-26T21:33:54.919Z,4.78
2022-08-26T21:36:24.417Z,5.32
2022-08-26T21:38:52.481Z,5.70
2022-08-26T21:41:22.676Z,5.28
2022-08-26T21:43:51.941Z,5.90
2022-08-26T21:46:22.085Z,6.40
2022-08-26T21:48:51.724Z,6.22
2022-08-26T21:51:22.963Z,5.97
2022-08-26T21:53:53.523Z,5.05
2022-08-26T21:56:23.092Z,6.20
2022-08-26T21:58:52.450Z,6.18
2022-08-26T22:01:23.023Z,6.45
2022-08-26T22:03:52.661Z,5.57
2022-08-26T22:06:23.434Z,4.85
2022-08-26T22:08:54.070Z,5.93
2022-08-26T22:11:22.317Z,6.63
2022-08-26T22:13:52.322Z,5.55
2022-08-26T22:16:20.933Z,6.22
2022-08-26T22:18:49.156Z,6.63
2022-08-26T22:21:20.035Z,5.70
2022-08-26T22:23:48.509Z,6.07
2022-08-26T22:26:25.470Z,6.05
2022-08-26T22:28:58.794Z,5.90
2022-08-26T22:31:37.577Z,6.05
2022-08-26T22:34:07.932Z,6.25
2022-08-26T22:36:39.802Z,5.45
2022-08-26T22:39:12.610Z,6.05
2022-08-26T22:41:42.215Z,5.43
2022-08-26T22:44:11.842Z,6.70
2022-08-26T22:46:41.310Z,6.20
2022-08-26T22:49:09.968Z,5.70
2022-08-26T22:51:38.079Z,5.53
2022-08-26T22:54:06.728Z,6.05
2022-08-26T22:56:36.018Z,6.03
2022-08-26T22:59:06.885Z,6.43
2022-08-26T23:01:36.980Z,6.47
2022-08-26T23:04:07.403Z,6.90
2022-08-26T23:06:36.880Z,6.57
2022-08-26T23:09:05.670Z,6.70
2022-08-26T23:11:34.137Z,7.20
2022-08-26T23:14:02.332Z,7.15
2022-08-26T23:16:38.014Z,6.13
2022-08-26T23:19:08.240Z,6.85
2022-08-26T23:21:36.408Z,7.20
2022-08-26T23:24:05.225Z,7.82
2022-08-26T23:26:33.681Z,6.50
2022-08-26T23:29:02.726Z,6.78
2022-08-26T23:31:30.915Z,7.15
2022-08-26T23:34:20.370Z,7.03
2022-08-26T23:36:48.543Z,7.07
2022-08-26T23:39:16.700Z,7.25
2022-08-26T23:41:44.687Z,6.35
2022-08-26T23:44:13.538Z,6.90
2022-08-26T23:46:41.641Z,7.28
2022-08-26T23:49:11.041Z,6.70
2022-08-26T23:51:56.881Z,7.40
2022-08-26T23:54:24.891Z,7.18
2022-08-26T23:56:52.945Z,6.85
2022-08-26T23:59:21.396Z,6.95
